sensor_id;sensor_type;location;lat;lon;timestamp;P1;durP1;ratioP1;P2;durP2;ratioP2
45107;SDS011;30869;51.188;6.556;2022-08-14T00:00:33;2.83;;;2.58;;
45107;SDS011;30869;51.188;6.556;2022-08-14T00:02:59;2.42;;;2.22;;
45107;SDS011;30869;51.188;6.556;2022-08-14T00:05:25;11.00;;;2.80;;
45107;SDS011;30869;51.188;6.556;2022-08-14T00:07:50;3.17;;;2.63;;
45107;SDS011;30869;51.188;6.556;2022-08-14T00:10:17;4.00;;;3.00;;
45107;SDS011;30869;51.188;6.556;2022-08-14T00:12:46;3.95;;;2.53;;
45107;SDS011;30869;51.188;6.556;2022-08-14T00:15:16;7.57;;;2.60;;
45107;SDS011;30869;51.188;6.556;2022-08-14T00:17:45;2.33;;;2.13;;
45107;SDS011;30869;51.188;6.556;2022-08-14T00:20:11;2.50;;;2.22;;
45107;SDS011;30869;51.188;6.556;2022-08-14T00:22:38;2.40;;;2.20;;
45107;SDS011;30869;51.188;6.556;2022-08-14T00:25:07;2.05;;;1.88;;
45107;SDS011;30869;51.188;6.556;2022-08-14T00:27:33;3.35;;;2.38;;
45107;SDS011;30869;51.188;6.556;2022-08-14T00:29:59;2.33;;;2.22;;
45107;SDS011;30869;51.188;6.556;2022-08-14T00:32:25;2.30;;;2.10;;
45107;SDS011;30869;51.188;6.556;2022-08-14T00:34:50;2.72;;;2.40;;
45107;SDS011;30869;51.188;6.556;2022-08-14T00:37:16;2.20;;;2.10;;
45107;SDS011;30869;51.188;6.556;2022-08-14T00:39:42;2.28;;;2.17;;
45107;SDS011;30869;51.188;6.556;2022-08-14T00:42:07;2.65;;;2.45;;
45107;SDS011;30869;51.188;6.556;2022-08-14T00:44:33;2.33;;;2.13;;
45107;SDS011;30869;51.188;6.556;2022-08-14T00:46:59;2.28;;;2.00;;
45107;SDS011;30869;51.188;6.556;2022-08-14T00:49:27;2.28;;;1.90;;
45107;SDS011;30869;51.188;6.556;2022-08-14T00:51:54;2.50;;;2.30;;
45107;SDS011;30869;51.188;6.556;2022-08-14T00:54:20;2.70;;;2.50;;
45107;SDS011;30869;51.188;6.556;2022-08-14T00:56:46;2.25;;;2.05;;
45107;SDS011;30869;51.188;6.556;2022-08-14T00:59:13;1.88;;;1.77;;
45107;SDS011;30869;51.188;6.556;2022-08-14T01:01:39;2.95;;;2.70;;
45107;SDS011;30869;51.188;6.556;2022-08-14T01:04:05;2.60;;;2.38;;
45107;SDS011;30869;51.188;6.556;2022-08-14T01:06:31;2.10;;;2.00;;
45107;SDS011;30869;51.188;6.556;2022-08-14T01:08:58;2.33;;;2.13;;
45107;SDS011;30869;51.188;6.556;2022-08-14T01:11:25;6.20;;;2.70;;
45107;SDS011;30869;51.188;6.556;2022-08-14T01:13:51;3.95;;;2.22;;
45107;SDS011;30869;51.188;6.556;2022-08-14T01:16:18;4.07;;;2.50;;
45107;SDS011;30869;51.188;6.556;2022-08-14T01:18:45;2.25;;;2.13;;
45107;SDS011;30869;51.188;6.556;2022-08-14T01:24:03;2.58;;;2.38;;
45107;SDS011;30869;51.188;6.556;2022-08-14T01:26:34;2.40;;;2.20;;
45107;SDS011;30869;51.188;6.556;2022-08-14T01:29:03;2.38;;;2.17;;
45107;SDS011;30869;51.188;6.556;2022-08-14T01:31:30;2.35;;;2.15;;
45107;SDS011;30869;51.188;6.556;2022-08-14T01:33:59;2.92;;;2.72;;
45107;SDS011;30869;51.188;6.556;2022-08-14T01:36:27;2.90;;;2.60;;
45107;SDS011;30869;51.188;6.556;2022-08-14T01:39:00;2.40;;;2.20;;
45107;SDS011;30869;51.188;6.556;2022-08-14T01:41:32;2.05;;;1.95;;
45107;SDS011;30869;51.188;6.556;2022-08-14T01:44:01;2.45;;;2.25;;
45107;SDS011;30869;51.188;6.556;2022-08-14T01:46:40;2.28;;;2.08;;
45107;SDS011;30869;51.188;6.556;2022-08-14T01:49:09;2.53;;;2.33;;
45107;SDS011;30869;51.188;6.556;2022-08-14T01:51:36;5.00;;;2.63;;
45107;SDS011;30869;51.188;6.556;2022-08-14T01:54:10;2.35;;;2.25;;
45107;SDS011;30869;51.188;6.556;2022-08-14T01:56:39;2.17;;;2.03;;
45107;SDS011;30869;51.188;6.556;2022-08-14T01:59:17;2.10;;;2.00;;
45107;SDS011;30869;51.188;6.556;2022-08-14T02:01:51;2.40;;;2.20;;
45107;SDS011;30869;51.188;6.556;2022-08-14T02:04:21;2.75;;;2.50;;
45107;SDS011;30869;51.188;6.556;2022-08-14T02:06:48;2.35;;;2.17;;
45107;SDS011;30869;51.188;6.556;2022-08-14T02:09:16;2.33;;;2.13;;
45107;SDS011;30869;51.188;6.556;2022-08-14T02:11:43;2.40;;;2.20;;
45107;SDS011;30869;51.188;6.556;2022-08-14T02:14:10;2.85;;;2.60;;
45107;SDS011;30869;51.188;6.556;2022-08-14T02:16:38;2.80;;;2.60;;
45107;SDS011;30869;51.188;6.556;2022-08-14T02:19:07;2.70;;;2.20;;
45107;SDS011;30869;51.188;6.556;2022-08-14T02:21:34;2.25;;;2.05;;
45107;SDS011;30869;51.188;6.556;2022-08-14T02:24:01;3.67;;;2.40;;
45107;SDS011;30869;51.188;6.556;2022-08-14T02:26:33;2.13;;;1.98;;
45107;SDS011;30869;51.188;6.556;2022-08-14T02:29:03;2.65;;;2.45;;
45107;SDS011;30869;51.188;6.556;2022-08-14T02:31:35;2.50;;;2.40;;
45107;SDS011;30869;51.188;6.556;2022-08-14T02:34:08;2.47;;;2.13;;
45107;SDS011;30869;51.188;6.556;2022-08-14T02:36:39;2.35;;;2.15;;
45107;SDS011;30869;51.188;6.556;2022-08-14T02:39:06;2.58;;;2.38;;
45107;SDS011;30869;51.188;6.556;2022-08-14T02:41:34;2.42;;;2.22;;
45107;SDS011;30869;51.188;6.556;2022-08-14T02:44:01;2.50;;;2.30;;
45107;SDS011;30869;51.188;6.556;2022-08-14T02:46:28;2.88;;;2.67;;
45107;SDS011;30869;51.188;6.556;2022-08-14T02:48:55;2.28;;;2.17;;
45107;SDS011;30869;51.188;6.556;2022-08-14T02:51:23;3.20;;;2.28;;
45107;SDS011;30869;51.188;6.556;2022-08-14T02:53:49;3.03;;;2.28;;
45107;SDS011;30869;51.188;6.556;2022-08-14T02:56:15;2.70;;;2.50;;
45107;SDS011;30869;51.188;6.556;2022-08-14T02:58:44;2.35;;;2.20;;
45107;SDS011;30869;51.188;6.556;2022-08-14T03:01:14;2.55;;;2.35;;
45107;SDS011;30869;51.188;6.556;2022-08-14T03:03:42;4.30;;;2.60;;
45107;SDS011;30869;51.188;6.556;2022-08-14T03:06:09;3.83;;;2.20;;
45107;SDS011;30869;51.188;6.556;2022-08-14T03:08:36;2.63;;;2.42;;
45107;SDS011;30869;51.188;6.556;2022-08-14T03:11:03;2.65;;;2.45;;
45107;SDS011;30869;51.188;6.556;2022-08-14T03:13:31;2.35;;;2.15;;
45107;SDS011;30869;51.188;6.556;2022-08-14T03:16:00;2.53;;;2.33;;
45107;SDS011;30869;51.188;6.556;2022-08-14T03:18:31;2.63;;;2.15;;
45107;SDS011;30869;51.188;6.556;2022-08-14T03:20:58;2.25;;;2.03;;
45107;SDS011;30869;51.188;6.556;2022-08-14T03:23:28;2.50;;;2.30;;
45107;SDS011;30869;51.188;6.556;2022-08-14T03:25:58;2.53;;;2.33;;
45107;SDS011;30869;51.188;6.556;2022-08-14T03:28:25;2.38;;;2.20;;
45107;SDS011;30869;51.188;6.556;2022-08-14T03:30:53;2.30;;;2.10;;
45107;SDS011;30869;51.188;6.556;2022-08-14T03:33:19;2.28;;;2.17;;
45107;SDS011;30869;51.188;6.556;2022-08-14T03:35:45;3.00;;;2.80;;
45107;SDS011;30869;51.188;6.556;2022-08-14T03:38:11;2.75;;;2.55;;
45107;SDS011;30869;51.188;6.556;2022-08-14T03:40:38;2.30;;;2.10;;
45107;SDS011;30869;51.188;6.556;2022-08-14T03:43:05;4.15;;;2.17;;
45107;SDS011;30869;51.188;6.556;2022-08-14T03:45:33;2.63;;;2.42;;
45107;SDS011;30869;51.188;6.556;2022-08-14T03:48:00;2.47;;;2.28;;
45107;SDS011;30869;51.188;6.556;2022-08-14T03:50:42;2.25;;;2.05;;
45107;SDS011;30869;51.188;6.556;2022-08-14T03:53:09;2.80;;;2.60;;
45107;SDS011;30869;51.188;6.556;2022-08-14T03:55:36;3.03;;;2.63;;
45107;SDS011;30869;51.188;6.556;2022-08-14T03:58:03;2.35;;;2.15;;
45107;SDS011;30869;51.188;6.556;2022-08-14T04:00:33;4.05;;;2.20;;
45107;SDS011;30869;51.188;6.556;2022-08-14T04:03:00;2.60;;;2.40;;
45107;SDS011;30869;51.188;6.556;2022-08-14T04:05:29;2.60;;;2.40;;
45107;SDS011;30869;51.188;6.556;2022-08-14T04:07:55;2.45;;;2.25;;
45107;SDS011;30869;51.188;6.556;2022-08-14T04:10:22;2.47;;;2.25;;
45107;SDS011;30869;51.188;6.556;2022-08-14T04:12:48;2.10;;;2.00;;
45107;SDS011;30869;51.188;6.556;2022-08-14T04:15:14;3.08;;;2.60;;
45107;SDS011;30869;51.188;6.556;2022-08-14T04:17:43;2.58;;;2.38;;
45107;SDS011;30869;51.188;6.556;2022-08-14T04:20:09;2.58;;;2.38;;
45107;SDS011;30869;51.188;6.556;2022-08-14T04:22:36;3.70;;;2.30;;
45107;SDS011;30869;51.188;6.556;2022-08-14T04:25:06;3.08;;;2.78;;
45107;SDS011;30869;51.188;6.556;2022-08-14T04:27:32;2.85;;;2.65;;
45107;SDS011;30869;51.188;6.556;2022-08-14T04:30:00;2.22;;;2.13;;
45107;SDS011;30869;51.188;6.556;2022-08-14T04:32:26;4.25;;;3.42;;
45107;SDS011;30869;51.188;6.556;2022-08-14T04:34:52;2.50;;;2.30;;
45107;SDS011;30869;51.188;6.556;2022-08-14T04:37:22;2.80;;;2.60;;
45107;SDS011;30869;51.188;6.556;2022-08-14T04:40:07;5.03;;;4.47;;
45107;SDS011;30869;51.188;6.556;2022-08-14T04:42:52;5.50;;;3.55;;
45107;SDS011;30869;51.188;6.556;2022-08-14T04:45:39;3.15;;;2.85;;
45107;SDS011;30869;51.188;6.556;2022-08-14T04:48:08;4.22;;;3.80;;
45107;SDS011;30869;51.188;6.556;2022-08-14T04:50:49;5.50;;;5.00;;
45107;SDS011;30869;51.188;6.556;2022-08-14T04:53:16;5.47;;;4.82;;
45107;SDS011;30869;51.188;6.556;2022-08-14T04:55:48;5.35;;;4.78;;
45107;SDS011;30869;51.188;6.556;2022-08-14T04:58:15;3.25;;;2.95;;
45107;SDS011;30869;51.188;6.556;2022-08-14T05:00:45;2.80;;;2.60;;
45107;SDS011;30869;51.188;6.556;2022-08-14T05:03:15;3.08;;;2.88;;
45107;SDS011;30869;51.188;6.556;2022-08-14T05:05:41;3.05;;;2.70;;
45107;SDS011;30869;51.188;6.556;2022-08-14T05:08:08;3.60;;;2.58;;
45107;SDS011;30869;51.188;6.556;2022-08-14T05:10:40;3.10;;;2.80;;
45107;SDS011;30869;51.188;6.556;2022-08-14T05:13:08;4.90;;;4.50;;
45107;SDS011;30869;51.188;6.556;2022-08-14T05:15:35;4.60;;;4.20;;
45107;SDS011;30869;51.188;6.556;2022-08-14T05:18:12;4.07;;;3.35;;
45107;SDS011;30869;51.188;6.556;2022-08-14T05:20:40;5.88;;;4.25;;
45107;SDS011;30869;51.188;6.556;2022-08-14T05:23:09;2.90;;;2.70;;
45107;SDS011;30869;51.188;6.556;2022-08-14T05:25:36;10.80;;;4.65;;
45107;SDS011;30869;51.188;6.556;2022-08-14T05:28:21;7.13;;;3.33;;
45107;SDS011;30869;51.188;6.556;2022-08-14T05:30:59;6.55;;;5.13;;
45107;SDS011;30869;51.188;6.556;2022-08-14T05:33:27;13.15;;;5.05;;
45107;SDS011;30869;51.188;6.556;2022-08-14T05:35:55;8.02;;;4.97;;
45107;SDS011;30869;51.188;6.556;2022-08-14T05:38:25;3.20;;;2.90;;
45107;SDS011;30869;51.188;6.556;2022-08-14T05:41:03;3.60;;;2.97;;
45107;SDS011;30869;51.188;6.556;2022-08-14T05:43:30;5.20;;;4.47;;
45107;SDS011;30869;51.188;6.556;2022-08-14T05:45:56;5.47;;;3.25;;
45107;SDS011;30869;51.188;6.556;2022-08-14T05:48:23;4.75;;;4.35;;
45107;SDS011;30869;51.188;6.556;2022-08-14T05:50:50;8.65;;;6.20;;
45107;SDS011;30869;51.188;6.556;2022-08-14T05:53:21;6.30;;;4.93;;
45107;SDS011;30869;51.188;6.556;2022-08-14T05:55:48;6.07;;;5.15;;
45107;SDS011;30869;51.188;6.556;2022-08-14T05:58:13;4.85;;;4.43;;
45107;SDS011;30869;51.188;6.556;2022-08-14T06:00:40;5.13;;;4.63;;
45107;SDS011;30869;51.188;6.556;2022-08-14T06:03:10;5.15;;;4.65;;
45107;SDS011;30869;51.188;6.556;2022-08-14T06:05:39;4.68;;;3.95;;
45107;SDS011;30869;51.188;6.556;2022-08-14T06:08:05;9.30;;;6.30;;
45107;SDS011;30869;51.188;6.556;2022-08-14T06:10:51;10.05;;;5.20;;
45107;SDS011;30869;51.188;6.556;2022-08-14T06:13:19;4.82;;;4.20;;
45107;SDS011;30869;51.188;6.556;2022-08-14T06:15:46;5.68;;;5.07;;
45107;SDS011;30869;51.188;6.556;2022-08-14T06:18:14;5.50;;;4.03;;
45107;SDS011;30869;51.188;6.556;2022-08-14T06:20:40;10.50;;;4.18;;
45107;SDS011;30869;51.188;6.556;2022-08-14T06:23:06;5.40;;;4.88;;
45107;SDS011;30869;51.188;6.556;2022-08-14T06:25:31;6.30;;;5.70;;
45107;SDS011;30869;51.188;6.556;2022-08-14T06:27:57;12.20;;;5.82;;
45107;SDS011;30869;51.188;6.556;2022-08-14T06:30:24;8.45;;;6.47;;
45107;SDS011;30869;51.188;6.556;2022-08-14T06:32:51;4.43;;;3.58;;
45107;SDS011;30869;51.188;6.556;2022-08-14T06:35:26;7.63;;;5.80;;
45107;SDS011;30869;51.188;6.556;2022-08-14T06:37:53;7.78;;;6.78;;
45107;SDS011;30869;51.188;6.556;2022-08-14T06:40:25;6.38;;;5.45;;
45107;SDS011;30869;51.188;6.556;2022-08-14T06:42:53;6.28;;;5.22;;
45107;SDS011;30869;51.188;6.556;2022-08-14T06:45:23;6.28;;;5.13;;
45107;SDS011;30869;51.188;6.556;2022-08-14T06:47:49;6.50;;;4.53;;
45107;SDS011;30869;51.188;6.556;2022-08-14T06:50:16;9.35;;;5.93;;
45107;SDS011;30869;51.188;6.556;2022-08-14T06:52:43;10.18;;;5.05;;
45107;SDS011;30869;51.188;6.556;2022-08-14T06:55:10;9.30;;;5.78;;
45107;SDS011;30869;51.188;6.556;2022-08-14T06:57:41;9.23;;;5.32;;
45107;SDS011;30869;51.188;6.556;2022-08-14T07:00:11;6.78;;;4.65;;
45107;SDS011;30869;51.188;6.556;2022-08-14T07:02:38;7.93;;;5.22;;
45107;SDS011;30869;51.188;6.556;2022-08-14T07:05:23;7.32;;;5.28;;
45107;SDS011;30869;51.188;6.556;2022-08-14T07:08:18;8.85;;;5.68;;
45107;SDS011;30869;51.188;6.556;2022-08-14T07:10:52;6.05;;;4.82;;
45107;SDS011;30869;51.188;6.556;2022-08-14T07:13:22;6.47;;;5.88;;
45107;SDS011;30869;51.188;6.556;2022-08-14T07:15:50;8.60;;;5.70;;
45107;SDS011;30869;51.188;6.556;2022-08-14T07:20:47;13.75;;;6.05;;
45107;SDS011;30869;51.188;6.556;2022-08-14T07:23:13;9.75;;;5.85;;
45107;SDS011;30869;51.188;6.556;2022-08-14T07:25:40;8.35;;;5.53;;
45107;SDS011;30869;51.188;6.556;2022-08-14T07:28:11;8.10;;;6.20;;
45107;SDS011;30869;51.188;6.556;2022-08-14T07:30:38;6.45;;;5.68;;
45107;SDS011;30869;51.188;6.556;2022-08-14T07:33:05;8.95;;;6.30;;
45107;SDS011;30869;51.188;6.556;2022-08-14T07:35:31;6.15;;;5.53;;
45107;SDS011;30869;51.188;6.556;2022-08-14T07:37:58;6.38;;;5.78;;
45107;SDS011;30869;51.188;6.556;2022-08-14T07:53:33;6.07;;;5.45;;
45107;SDS011;30869;51.188;6.556;2022-08-14T07:56:00;7.80;;;5.22;;
45107;SDS011;30869;51.188;6.556;2022-08-14T07:58:26;6.13;;;5.53;;
45107;SDS011;30869;51.188;6.556;2022-08-14T08:00:55;9.05;;;5.55;;
45107;SDS011;30869;51.188;6.556;2022-08-14T08:03:22;7.50;;;5.70;;
45107;SDS011;30869;51.188;6.556;2022-08-14T08:05:51;7.20;;;5.10;;
45107;SDS011;30869;51.188;6.556;2022-08-14T08:08:17;7.03;;;5.25;;
45107;SDS011;30869;51.188;6.556;2022-08-14T08:10:44;5.78;;;5.20;;
45107;SDS011;30869;51.188;6.556;2022-08-14T08:13:20;5.50;;;4.93;;
45107;SDS011;30869;51.188;6.556;2022-08-14T09:41:08;6.00;;;5.47;;
45107;SDS011;30869;51.188;6.556;2022-08-14T09:43:58;10.68;;;5.78;;
45107;SDS011;30869;51.188;6.556;2022-08-14T09:46:53;8.05;;;5.63;;
45107;SDS011;30869;51.188;6.556;2022-08-14T09:49:33;6.82;;;5.63;;
45107;SDS011;30869;51.188;6.556;2022-08-14T09:52:04;6.25;;;4.80;;
45107;SDS011;30869;51.188;6.556;2022-08-14T09:54:44;7.32;;;5.18;;
45107;SDS011;30869;51.188;6.556;2022-08-14T09:57:25;8.05;;;4.90;;
45107;SDS011;30869;51.188;6.556;2022-08-14T09:59:52;4.53;;;4.10;;
45107;SDS011;30869;51.188;6.556;2022-08-14T12:57:07;4.53;;;3.75;;
45107;SDS011;30869;51.188;6.556;2022-08-14T13:01:06;5.90;;;2.88;;
45107;SDS011;30869;51.188;6.556;2022-08-14T13:08:35;3.10;;;2.80;;
45107;SDS011;30869;51.188;6.556;2022-08-14T13:11:15;4.07;;;3.38;;
45107;SDS011;30869;51.188;6.556;2022-08-14T17:45:14;7.85;;;3.58;;
45107;SDS011;30869;51.188;6.556;2022-08-14T17:47:52;6.18;;;3.72;;
45107;SDS011;30869;51.188;6.556;2022-08-14T17:50:41;5.70;;;2.90;;
45107;SDS011;30869;51.188;6.556;2022-08-14T17:53:20;4.90;;;3.80;;
45107;SDS011;30869;51.188;6.556;2022-08-14T17:55:51;4.05;;;3.65;;
45107;SDS011;30869;51.188;6.556;2022-08-14T17:58:20;3.47;;;3.17;;
45107;SDS011;30869;51.188;6.556;2022-08-14T18:04:42;4.53;;;3.53;;
45107;SDS011;30869;51.188;6.556;2022-08-14T18:20:58;5.38;;;3.58;;
45107;SDS011;30869;51.188;6.556;2022-08-14T18:31:48;5.15;;;3.22;;
45107;SDS011;30869;51.188;6.556;2022-08-14T18:35:40;4.22;;;3.40;;
45107;SDS011;30869;51.188;6.556;2022-08-14T19:11:05;17.48;;;5.70;;
45107;SDS011;30869;51.188;6.556;2022-08-14T21:59:27;7.53;;;4.10;;
45107;SDS011;30869;51.188;6.556;2022-08-14T22:01:58;5.65;;;3.80;;
45107;SDS011;30869;51.188;6.556;2022-08-14T22:04:29;7.68;;;3.95;;
45107;SDS011;30869;51.188;6.556;2022-08-14T22:07:10;5.53;;;3.85;;
45107;SDS011;30869;51.188;6.556;2022-08-14T22:09:58;3.40;;;3.15;;
45107;SDS011;30869;51.188;6.556;2022-08-14T22:12:24;4.43;;;3.60;;
45107;SDS011;30869;51.188;6.556;2022-08-14T22:19:00;4.70;;;2.95;;
